sensor_id;sensor_type;location;lat;lon;timestamp;P1;durP1;ratioP1;P2;durP2;ratioP2
31760;SDS011;18335;51.486;7.562;2023-01-01T00:00:11;26.15;;;13.93;;
31760;SDS011;18335;51.486;7.562;2023-01-01T00:02:39;20.13;;;8.68;;
31760;SDS011;18335;51.486;7.562;2023-01-01T00:05:06;18.42;;;9.23;;
31760;SDS011;18335;51.486;7.562;2023-01-01T00:07:34;16.60;;;7.30;;
31760;SDS011;18335;51.486;7.562;2023-01-01T00:10:00;19.02;;;7.28;;
31760;SDS011;18335;51.486;7.562;2023-01-01T00:12:41;20.27;;;6.70;;
31760;SDS011;18335;51.486;7.562;2023-01-01T00:15:08;16.33;;;6.72;;
31760;SDS011;18335;51.486;7.562;2023-01-01T00:17:36;13.35;;;6.78;;
31760;SDS011;18335;51.486;7.562;2023-01-01T00:20:03;14.68;;;6.28;;
31760;SDS011;18335;51.486;7.562;2023-01-01T00:22:30;17.08;;;7.30;;
31760;SDS011;18335;51.486;7.562;2023-01-01T00:24:56;15.55;;;5.70;;
31760;SDS011;18335;51.486;7.562;2023-01-01T00:27:23;16.08;;;5.97;;
31760;SDS011;18335;51.486;7.562;2023-01-01T00:29:50;16.05;;;5.45;;
31760;SDS011;18335;51.486;7.562;2023-01-01T00:32:17;15.25;;;5.35;;
31760;SDS011;18335;51.486;7.562;2023-01-01T00:34:45;17.50;;;5.97;;
31760;SDS011;18335;51.486;7.562;2023-01-01T00:37:12;16.50;;;5.47;;
31760;SDS011;18335;51.486;7.562;2023-01-01T00:39:39;16.10;;;5.35;;
31760;SDS011;18335;51.486;7.562;2023-01-01T00:42:06;14.05;;;5.43;;
31760;SDS011;18335;51.486;7.562;2023-01-01T00:44:33;19.17;;;5.75;;
31760;SDS011;18335;51.486;7.562;2023-01-01T00:46:59;15.85;;;6.38;;
31760;SDS011;18335;51.486;7.562;2023-01-01T00:49:26;14.07;;;5.60;;
31760;SDS011;18335;51.486;7.562;2023-01-01T00:51:54;15.93;;;5.57;;
31760;SDS011;18335;51.486;7.562;2023-01-01T00:54:21;16.27;;;6.03;;
31760;SDS011;18335;51.486;7.562;2023-01-01T00:56:49;16.98;;;6.03;;
31760;SDS011;18335;51.486;7.562;2023-01-01T00:59:16;18.50;;;5.85;;
31760;SDS011;18335;51.486;7.562;2023-01-01T01:01:43;14.93;;;5.70;;
31760;SDS011;18335;51.486;7.562;2023-01-01T01:04:10;16.95;;;5.93;;
31760;SDS011;18335;51.486;7.562;2023-01-01T01:06:37;13.98;;;5.50;;
31760;SDS011;18335;51.486;7.562;2023-01-01T01:09:05;17.75;;;6.60;;
31760;SDS011;18335;51.486;7.562;2023-01-01T01:11:32;14.05;;;5.55;;
31760;SDS011;18335;51.486;7.562;2023-01-01T01:13:59;15.90;;;5.05;;
31760;SDS011;18335;51.486;7.562;2023-01-01T01:16:26;13.80;;;5.53;;
31760;SDS011;18335;51.486;7.562;2023-01-01T01:18:55;14.27;;;5.75;;
31760;SDS011;18335;51.486;7.562;2023-01-01T01:21:27;18.58;;;5.07;;
31760;SDS011;18335;51.486;7.562;2023-01-01T01:23:57;16.25;;;6.22;;
31760;SDS011;18335;51.486;7.562;2023-01-01T01:26:28;16.30;;;5.57;;
31760;SDS011;18335;51.486;7.562;2023-01-01T01:29:06;11.43;;;5.18;;
31760;SDS011;18335;51.486;7.562;2023-01-01T01:31:37;14.10;;;5.50;;
31760;SDS011;18335;51.486;7.562;2023-01-01T01:34:11;14.90;;;5.93;;
31760;SDS011;18335;51.486;7.562;2023-01-01T01:36:43;13.57;;;5.85;;
31760;SDS011;18335;51.486;7.562;2023-01-01T01:39:11;15.23;;;5.70;;
31760;SDS011;18335;51.486;7.562;2023-01-01T01:41:42;12.30;;;4.75;;
31760;SDS011;18335;51.486;7.562;2023-01-01T01:47:14;14.27;;;5.40;;
31760;SDS011;18335;51.486;7.562;2023-01-01T01:49:42;18.02;;;5.20;;
31760;SDS011;18335;51.486;7.562;2023-01-01T01:52:10;11.27;;;4.40;;
31760;SDS011;18335;51.486;7.562;2023-01-01T01:54:37;9.60;;;3.83;;
31760;SDS011;18335;51.486;7.562;2023-01-01T01:57:07;11.95;;;4.32;;
31760;SDS011;18335;51.486;7.562;2023-01-01T01:59:37;9.63;;;3.90;;
31760;SDS011;18335;51.486;7.562;2023-01-01T02:02:08;11.50;;;3.63;;
31760;SDS011;18335;51.486;7.562;2023-01-01T02:04:41;11.10;;;3.55;;
31760;SDS011;18335;51.486;7.562;2023-01-01T02:07:08;11.05;;;3.67;;
31760;SDS011;18335;51.486;7.562;2023-01-01T02:09:35;8.35;;;3.33;;
31760;SDS011;18335;51.486;7.562;2023-01-01T02:12:02;7.88;;;2.72;;
31760;SDS011;18335;51.486;7.562;2023-01-01T02:14:30;9.35;;;3.03;;
31760;SDS011;18335;51.486;7.562;2023-01-01T02:16:59;10.38;;;2.70;;
31760;SDS011;18335;51.486;7.562;2023-01-01T02:19:36;8.32;;;2.70;;
31760;SDS011;18335;51.486;7.562;2023-01-01T02:22:13;6.55;;;2.78;;
31760;SDS011;18335;51.486;7.562;2023-01-01T02:24:49;9.75;;;2.47;;
31760;SDS011;18335;51.486;7.562;2023-01-01T02:27:26;9.30;;;2.42;;
31760;SDS011;18335;51.486;7.562;2023-01-01T02:30:02;10.38;;;2.40;;
31760;SDS011;18335;51.486;7.562;2023-01-01T02:32:32;6.25;;;2.30;;
31760;SDS011;18335;51.486;7.562;2023-01-01T02:35:04;8.52;;;2.17;;
31760;SDS011;18335;51.486;7.562;2023-01-01T02:37:55;8.43;;;2.20;;
31760;SDS011;18335;51.486;7.562;2023-01-01T02:40:25;12.48;;;2.47;;
31760;SDS011;18335;51.486;7.562;2023-01-01T02:42:53;5.72;;;2.03;;
31760;SDS011;18335;51.486;7.562;2023-01-01T02:45:23;6.05;;;1.90;;
31760;SDS011;18335;51.486;7.562;2023-01-01T02:47:50;7.10;;;1.95;;
31760;SDS011;18335;51.486;7.562;2023-01-01T02:50:18;9.23;;;2.33;;
31760;SDS011;18335;51.486;7.562;2023-01-01T02:52:52;6.15;;;1.67;;
31760;SDS011;18335;51.486;7.562;2023-01-01T02:55:31;6.35;;;1.70;;
31760;SDS011;18335;51.486;7.562;2023-01-01T02:58:07;3.97;;;1.70;;
31760;SDS011;18335;51.486;7.562;2023-01-01T03:01:02;3.50;;;1.55;;
31760;SDS011;18335;51.486;7.562;2023-01-01T03:03:37;10.43;;;1.60;;
31760;SDS011;18335;51.486;7.562;2023-01-01T03:06:13;6.80;;;1.75;;
31760;SDS011;18335;51.486;7.562;2023-01-01T03:08:52;4.35;;;1.52;;
31760;SDS011;18335;51.486;7.562;2023-01-01T03:14:00;8.45;;;2.10;;
31760;SDS011;18335;51.486;7.562;2023-01-01T03:16:34;6.88;;;2.00;;
31760;SDS011;18335;51.486;7.562;2023-01-01T03:19:06;6.55;;;1.70;;
31760;SDS011;18335;51.486;7.562;2023-01-01T03:21:37;6.75;;;2.17;;
31760;SDS011;18335;51.486;7.562;2023-01-01T03:24:08;10.80;;;2.10;;
31760;SDS011;18335;51.486;7.562;2023-01-01T03:26:41;7.70;;;1.67;;
31760;SDS011;18335;51.486;7.562;2023-01-01T03:29:09;7.32;;;1.75;;
31760;SDS011;18335;51.486;7.562;2023-01-01T03:31:41;4.25;;;1.40;;
31760;SDS011;18335;51.486;7.562;2023-01-01T03:34:11;6.05;;;1.50;;
31760;SDS011;18335;51.486;7.562;2023-01-01T03:36:43;6.47;;;1.55;;
31760;SDS011;18335;51.486;7.562;2023-01-01T03:39:15;10.15;;;1.70;;
31760;SDS011;18335;51.486;7.562;2023-01-01T03:41:46;7.07;;;1.85;;
31760;SDS011;18335;51.486;7.562;2023-01-01T03:44:19;7.00;;;1.80;;
31760;SDS011;18335;51.486;7.562;2023-01-01T03:46:52;6.18;;;1.58;;
31760;SDS011;18335;51.486;7.562;2023-01-01T03:49:19;7.70;;;1.30;;
31760;SDS011;18335;51.486;7.562;2023-01-01T03:51:53;6.55;;;1.58;;
31760;SDS011;18335;51.486;7.562;2023-01-01T03:54:28;9.27;;;1.75;;
31760;SDS011;18335;51.486;7.562;2023-01-01T03:57:04;11.73;;;2.38;;
31760;SDS011;18335;51.486;7.562;2023-01-01T03:59:38;3.33;;;1.20;;
31760;SDS011;18335;51.486;7.562;2023-01-01T04:02:10;8.48;;;1.60;;
31760;SDS011;18335;51.486;7.562;2023-01-01T04:04:42;6.65;;;1.40;;
31760;SDS011;18335;51.486;7.562;2023-01-01T04:07:09;9.05;;;2.22;;
31760;SDS011;18335;51.486;7.562;2023-01-01T04:09:36;7.55;;;2.50;;
31760;SDS011;18335;51.486;7.562;2023-01-01T04:12:05;8.15;;;1.67;;
31760;SDS011;18335;51.486;7.562;2023-01-01T04:14:33;6.75;;;1.63;;
31760;SDS011;18335;51.486;7.562;2023-01-01T04:17:02;7.32;;;1.70;;
31760;SDS011;18335;51.486;7.562;2023-01-01T04:19:32;8.10;;;2.58;;
31760;SDS011;18335;51.486;7.562;2023-01-01T04:21:59;4.65;;;1.63;;
31760;SDS011;18335;51.486;7.562;2023-01-01T04:24:26;8.15;;;1.60;;
31760;SDS011;18335;51.486;7.562;2023-01-01T04:26:54;7.72;;;1.42;;
31760;SDS011;18335;51.486;7.562;2023-01-01T04:29:21;8.85;;;2.03;;
31760;SDS011;18335;51.486;7.562;2023-01-01T04:31:48;7.57;;;1.42;;
31760;SDS011;18335;51.486;7.562;2023-01-01T04:34:15;7.88;;;1.70;;
31760;SDS011;18335;51.486;7.562;2023-01-01T04:36:43;6.47;;;1.45;;
31760;SDS011;18335;51.486;7.562;2023-01-01T04:39:10;6.15;;;1.38;;
31760;SDS011;18335;51.486;7.562;2023-01-01T04:41:37;8.40;;;1.80;;
31760;SDS011;18335;51.486;7.562;2023-01-01T04:44:04;6.45;;;1.77;;
31760;SDS011;18335;51.486;7.562;2023-01-01T04:46:31;6.75;;;1.52;;
31760;SDS011;18335;51.486;7.562;2023-01-01T04:48:58;8.02;;;2.13;;
31760;SDS011;18335;51.486;7.562;2023-01-01T04:51:25;6.78;;;2.03;;
31760;SDS011;18335;51.486;7.562;2023-01-01T04:53:53;7.07;;;1.58;;
31760;SDS011;18335;51.486;7.562;2023-01-01T04:56:20;8.57;;;2.15;;
31760;SDS011;18335;51.486;7.562;2023-01-01T04:58:47;6.93;;;1.85;;
31760;SDS011;18335;51.486;7.562;2023-01-01T05:01:15;4.60;;;1.23;;
31760;SDS011;18335;51.486;7.562;2023-01-01T05:03:43;9.20;;;1.77;;
31760;SDS011;18335;51.486;7.562;2023-01-01T05:06:11;4.40;;;1.65;;
31760;SDS011;18335;51.486;7.562;2023-01-01T05:08:39;8.32;;;1.80;;
31760;SDS011;18335;51.486;7.562;2023-01-01T05:11:09;5.93;;;1.80;;
31760;SDS011;18335;51.486;7.562;2023-01-01T05:13:38;6.75;;;1.65;;
31760;SDS011;18335;51.486;7.562;2023-01-01T05:16:06;7.43;;;1.38;;
31760;SDS011;18335;51.486;7.562;2023-01-01T05:18:36;4.93;;;1.80;;
31760;SDS011;18335;51.486;7.562;2023-01-01T05:21:03;13.73;;;1.80;;
31760;SDS011;18335;51.486;7.562;2023-01-01T05:23:31;5.03;;;1.20;;
31760;SDS011;18335;51.486;7.562;2023-01-01T05:25:59;5.88;;;1.60;;
31760;SDS011;18335;51.486;7.562;2023-01-01T05:28:27;8.20;;;1.60;;
31760;SDS011;18335;51.486;7.562;2023-01-01T05:30:53;3.72;;;1.33;;
31760;SDS011;18335;51.486;7.562;2023-01-01T05:33:20;6.82;;;1.67;;
31760;SDS011;18335;51.486;7.562;2023-01-01T05:35:51;10.15;;;2.00;;
31760;SDS011;18335;51.486;7.562;2023-01-01T05:38:18;6.20;;;1.67;;
31760;SDS011;18335;51.486;7.562;2023-01-01T05:40:45;8.13;;;1.60;;
31760;SDS011;18335;51.486;7.562;2023-01-01T05:43:12;10.00;;;1.65;;
31760;SDS011;18335;51.486;7.562;2023-01-01T05:45:42;3.97;;;1.50;;
31760;SDS011;18335;51.486;7.562;2023-01-01T05:48:09;5.45;;;1.45;;
31760;SDS011;18335;51.486;7.562;2023-01-01T05:50:36;7.15;;;1.83;;
31760;SDS011;18335;51.486;7.562;2023-01-01T05:53:03;9.15;;;1.70;;
31760;SDS011;18335;51.486;7.562;2023-01-01T05:55:30;6.30;;;1.60;;
31760;SDS011;18335;51.486;7.562;2023-01-01T05:57:56;8.60;;;1.70;;
31760;SDS011;18335;51.486;7.562;2023-01-01T06:00:23;4.88;;;1.27;;
31760;SDS011;18335;51.486;7.562;2023-01-01T06:02:51;8.65;;;2.40;;
31760;SDS011;18335;51.486;7.562;2023-01-01T06:05:19;6.30;;;1.60;;
31760;SDS011;18335;51.486;7.562;2023-01-01T06:07:45;4.40;;;1.63;;
31760;SDS011;18335;51.486;7.562;2023-01-01T06:10:12;4.28;;;1.42;;
31760;SDS011;18335;51.486;7.562;2023-01-01T06:12:39;7.00;;;1.83;;
31760;SDS011;18335;51.486;7.562;2023-01-01T06:15:06;10.40;;;2.10;;
31760;SDS011;18335;51.486;7.562;2023-01-01T06:17:34;6.22;;;1.70;;
31760;SDS011;18335;51.486;7.562;2023-01-01T06:20:02;11.88;;;2.17;;
31760;SDS011;18335;51.486;7.562;2023-01-01T06:22:30;7.82;;;3.70;;
31760;SDS011;18335;51.486;7.562;2023-01-01T06:24:56;13.23;;;1.77;;
31760;SDS011;18335;51.486;7.562;2023-01-01T06:27:23;7.28;;;1.65;;
31760;SDS011;18335;51.486;7.562;2023-01-01T06:29:50;6.15;;;1.30;;
31760;SDS011;18335;51.486;7.562;2023-01-01T06:32:17;6.43;;;1.70;;
31760;SDS011;18335;51.486;7.562;2023-01-01T06:34:43;8.15;;;1.90;;
31760;SDS011;18335;51.486;7.562;2023-01-01T06:37:11;8.57;;;2.15;;
31760;SDS011;18335;51.486;7.562;2023-01-01T06:39:38;9.80;;;2.05;;
31760;SDS011;18335;51.486;7.562;2023-01-01T06:42:05;8.82;;;2.05;;
31760;SDS011;18335;51.486;7.562;2023-01-01T06:44:32;8.60;;;2.05;;
31760;SDS011;18335;51.486;7.562;2023-01-01T06:46:58;8.98;;;1.42;;
31760;SDS011;18335;51.486;7.562;2023-01-01T06:49:25;7.10;;;1.60;;
31760;SDS011;18335;51.486;7.562;2023-01-01T06:51:52;6.68;;;1.55;;
31760;SDS011;18335;51.486;7.562;2023-01-01T06:54:20;4.60;;;1.40;;
31760;SDS011;18335;51.486;7.562;2023-01-01T06:56:46;10.45;;;1.52;;
31760;SDS011;18335;51.486;7.562;2023-01-01T06:59:14;9.40;;;1.70;;
31760;SDS011;18335;51.486;7.562;2023-01-01T07:01:41;6.40;;;1.52;;
31760;SDS011;18335;51.486;7.562;2023-01-01T07:04:09;8.75;;;1.88;;
31760;SDS011;18335;51.486;7.562;2023-01-01T07:06:37;5.80;;;1.35;;
31760;SDS011;18335;51.486;7.562;2023-01-01T07:09:04;5.35;;;1.27;;
31760;SDS011;18335;51.486;7.562;2023-01-01T07:11:33;7.32;;;1.50;;
31760;SDS011;18335;51.486;7.562;2023-01-01T07:14:00;7.55;;;1.50;;
31760;SDS011;18335;51.486;7.562;2023-01-01T07:16:27;7.82;;;1.75;;
31760;SDS011;18335;51.486;7.562;2023-01-01T07:18:54;8.95;;;1.90;;
31760;SDS011;18335;51.486;7.562;2023-01-01T07:21:23;6.07;;;1.48;;
31760;SDS011;18335;51.486;7.562;2023-01-01T07:23:53;8.43;;;1.80;;
31760;SDS011;18335;51.486;7.562;2023-01-01T07:26:21;6.88;;;1.70;;
31760;SDS011;18335;51.486;7.562;2023-01-01T07:28:50;8.95;;;1.95;;
31760;SDS011;18335;51.486;7.562;2023-01-01T07:31:17;6.28;;;1.98;;
31760;SDS011;18335;51.486;7.562;2023-01-01T07:33:43;5.05;;;1.60;;
31760;SDS011;18335;51.486;7.562;2023-01-01T07:36:10;7.40;;;1.40;;
31760;SDS011;18335;51.486;7.562;2023-01-01T07:38:37;6.72;;;1.92;;
31760;SDS011;18335;51.486;7.562;2023-01-01T07:41:04;9.23;;;1.80;;
31760;SDS011;18335;51.486;7.562;2023-01-01T07:43:30;11.23;;;1.92;;
31760;SDS011;18335;51.486;7.562;2023-01-01T07:45:59;7.75;;;2.63;;
31760;SDS011;18335;51.486;7.562;2023-01-01T07:48:26;12.32;;;2.20;;
31760;SDS011;18335;51.486;7.562;2023-01-01T07:50:53;7.55;;;2.50;;
31760;SDS011;18335;51.486;7.562;2023-01-01T07:53:20;6.50;;;1.58;;
31760;SDS011;18335;51.486;7.562;2023-01-01T07:55:47;5.43;;;1.70;;
31760;SDS011;18335;51.486;7.562;2023-01-01T07:58:13;11.55;;;1.95;;
31760;SDS011;18335;51.486;7.562;2023-01-01T08:00:43;5.38;;;2.20;;
31760;SDS011;18335;51.486;7.562;2023-01-01T08:03:13;7.80;;;2.00;;
31760;SDS011;18335;51.486;7.562;2023-01-01T08:05:40;5.40;;;1.90;;
31760;SDS011;18335;51.486;7.562;2023-01-01T08:08:07;14.48;;;2.22;;
31760;SDS011;18335;51.486;7.562;2023-01-01T08:10:35;11.93;;;1.70;;
31760;SDS011;18335;51.486;7.562;2023-01-01T08:13:02;13.93;;;2.40;;
31760;SDS011;18335;51.486;7.562;2023-01-01T08:15:30;9.73;;;1.92;;
31760;SDS011;18335;51.486;7.562;2023-01-01T08:17:58;9.45;;;2.53;;
31760;SDS011;18335;51.486;7.562;2023-01-01T08:20:27;7.22;;;1.55;;
31760;SDS011;18335;51.486;7.562;2023-01-01T08:22:55;9.77;;;2.15;;
31760;SDS011;18335;51.486;7.562;2023-01-01T08:25:23;3.35;;;1.50;;
31760;SDS011;18335;51.486;7.562;2023-01-01T08:27:50;7.18;;;2.40;;
31760;SDS011;18335;51.486;7.562;2023-01-01T08:30:17;7.70;;;1.85;;
31760;SDS011;18335;51.486;7.562;2023-01-01T08:32:45;7.88;;;1.70;;
31760;SDS011;18335;51.486;7.562;2023-01-01T08:35:12;8.45;;;2.08;;
31760;SDS011;18335;51.486;7.562;2023-01-01T08:37:40;9.93;;;1.95;;
31760;SDS011;18335;51.486;7.562;2023-01-01T08:40:08;9.07;;;1.98;;
31760;SDS011;18335;51.486;7.562;2023-01-01T08:42:36;8.07;;;1.83;;
31760;SDS011;18335;51.486;7.562;2023-01-01T08:45:03;11.60;;;1.80;;
31760;SDS011;18335;51.486;7.562;2023-01-01T08:47:30;7.80;;;2.00;;
31760;SDS011;18335;51.486;7.562;2023-01-01T08:49:57;5.60;;;1.83;;
31760;SDS011;18335;51.486;7.562;2023-01-01T08:52:24;9.60;;;1.83;;
31760;SDS011;18335;51.486;7.562;2023-01-01T08:54:52;10.30;;;2.35;;
31760;SDS011;18335;51.486;7.562;2023-01-01T08:57:18;8.70;;;1.88;;
31760;SDS011;18335;51.486;7.562;2023-01-01T08:59:45;8.25;;;2.35;;
31760;SDS011;18335;51.486;7.562;2023-01-01T09:02:12;9.93;;;2.05;;
31760;SDS011;18335;51.486;7.562;2023-01-01T09:04:38;6.97;;;2.25;;
31760;SDS011;18335;51.486;7.562;2023-01-01T09:07:05;8.45;;;1.85;;
31760;SDS011;18335;51.486;7.562;2023-01-01T09:09:32;7.97;;;1.88;;
31760;SDS011;18335;51.486;7.562;2023-01-01T09:12:00;6.50;;;2.85;;
31760;SDS011;18335;51.486;7.562;2023-01-01T09:14:31;8.75;;;2.08;;
31760;SDS011;18335;51.486;7.562;2023-01-01T09:16:58;7.85;;;1.83;;
31760;SDS011;18335;51.486;7.562;2023-01-01T09:19:25;10.75;;;2.30;;
31760;SDS011;18335;51.486;7.562;2023-01-01T09:21:52;6.10;;;1.75;;
31760;SDS011;18335;51.486;7.562;2023-01-01T09:24:19;8.70;;;2.20;;
31760;SDS011;18335;51.486;7.562;2023-01-01T09:26:45;6.80;;;1.95;;
31760;SDS011;18335;51.486;7.562;2023-01-01T09:29:13;8.02;;;2.13;;
31760;SDS011;18335;51.486;7.562;2023-01-01T09:31:43;11.82;;;1.95;;
31760;SDS011;18335;51.486;7.562;2023-01-01T09:34:10;9.40;;;2.00;;
31760;SDS011;18335;51.486;7.562;2023-01-01T09:36:37;7.95;;;2.20;;
31760;SDS011;18335;51.486;7.562;2023-01-01T09:39:03;6.60;;;2.17;;
31760;SDS011;18335;51.486;7.562;2023-01-01T09:41:34;8.65;;;1.95;;
31760;SDS011;18335;51.486;7.562;2023-01-01T09:44:21;12.00;;;2.58;;
31760;SDS011;18335;51.486;7.562;2023-01-01T09:47:10;10.73;;;1.90;;
31760;SDS011;18335;51.486;7.562;2023-01-01T09:49:45;9.27;;;2.00;;
31760;SDS011;18335;51.486;7.562;2023-01-01T09:52:15;10.82;;;1.90;;
31760;SDS011;18335;51.486;7.562;2023-01-01T09:54:46;7.72;;;2.33;;
31760;SDS011;18335;51.486;7.562;2023-01-01T09:57:17;10.10;;;2.40;;
31760;SDS011;18335;51.486;7.562;2023-01-01T09:59:46;9.43;;;2.22;;
31760;SDS011;18335;51.486;7.562;2023-01-01T10:02:15;9.75;;;2.05;;
31760;SDS011;18335;51.486;7.562;2023-01-01T10:05:02;8.18;;;1.80;;
31760;SDS011;18335;51.486;7.562;2023-01-01T10:07:41;9.20;;;2.08;;
31760;SDS011;18335;51.486;7.562;2023-01-01T10:10:15;8.27;;;2.65;;
31760;SDS011;18335;51.486;7.562;2023-01-01T10:12:57;8.68;;;2.03;;
31760;SDS011;18335;51.486;7.562;2023-01-01T10:15:35;9.90;;;1.98;;
31760;SDS011;18335;51.486;7.562;2023-01-01T10:18:07;6.75;;;1.63;;
31760;SDS011;18335;51.486;7.562;2023-01-01T10:23:13;8.95;;;1.73;;
31760;SDS011;18335;51.486;7.562;2023-01-01T10:25:45;9.15;;;2.30;;
31760;SDS011;18335;51.486;7.562;2023-01-01T10:28:13;7.20;;;1.70;;
31760;SDS011;18335;51.486;7.562;2023-01-01T10:30:46;10.38;;;2.33;;
31760;SDS011;18335;51.486;7.562;2023-01-01T10:33:13;6.65;;;1.90;;
31760;SDS011;18335;51.486;7.562;2023-01-01T10:35:41;8.70;;;1.90;;
31760;SDS011;18335;51.486;7.562;2023-01-01T10:38:15;7.88;;;2.45;;
31760;SDS011;18335;51.486;7.562;2023-01-01T10:40:47;8.45;;;2.00;;
31760;SDS011;18335;51.486;7.562;2023-01-01T10:43:15;7.70;;;1.50;;
31760;SDS011;18335;51.486;7.562;2023-01-01T10:45:42;12.82;;;1.98;;
31760;SDS011;18335;51.486;7.562;2023-01-01T10:48:14;8.27;;;2.50;;
31760;SDS011;18335;51.486;7.562;2023-01-01T10:50:44;6.97;;;2.00;;
31760;SDS011;18335;51.486;7.562;2023-01-01T10:53:23;7.72;;;1.73;;
31760;SDS011;18335;51.486;7.562;2023-01-01T10:55:57;9.90;;;3.00;;
31760;SDS011;18335;51.486;7.562;2023-01-01T10:58:34;6.70;;;1.85;;
31760;SDS011;18335;51.486;7.562;2023-01-01T11:01:03;8.65;;;1.77;;
31760;SDS011;18335;51.486;7.562;2023-01-01T11:03:32;9.43;;;1.75;;
31760;SDS011;18335;51.486;7.562;2023-01-01T11:06:01;6.35;;;2.13;;
31760;SDS011;18335;51.486;7.562;2023-01-01T11:08:30;9.35;;;1.83;;
31760;SDS011;18335;51.486;7.562;2023-01-01T11:10:59;9.90;;;2.00;;
31760;SDS011;18335;51.486;7.562;2023-01-01T11:13:27;8.90;;;1.80;;
31760;SDS011;18335;51.486;7.562;2023-01-01T11:15:55;10.18;;;1.92;;
31760;SDS011;18335;51.486;7.562;2023-01-01T11:18:24;11.65;;;2.00;;
31760;SDS011;18335;51.486;7.562;2023-01-01T11:20:55;9.88;;;2.10;;
31760;SDS011;18335;51.486;7.562;2023-01-01T11:23:27;7.28;;;1.80;;
31760;SDS011;18335;51.486;7.562;2023-01-01T11:25:56;11.40;;;1.85;;
31760;SDS011;18335;51.486;7.562;2023-01-01T11:28:24;7.70;;;2.30;;
31760;SDS011;18335;51.486;7.562;2023-01-01T11:30:58;6.88;;;1.67;;
31760;SDS011;18335;51.486;7.562;2023-01-01T11:33:31;7.20;;;1.67;;
31760;SDS011;18335;51.486;7.562;2023-01-01T11:36:03;6.03;;;1.88;;
31760;SDS011;18335;51.486;7.562;2023-01-01T11:38:31;10.93;;;2.70;;
31760;SDS011;18335;51.486;7.562;2023-01-01T11:41:01;6.25;;;1.95;;
31760;SDS011;18335;51.486;7.562;2023-01-01T11:43:34;11.85;;;2.30;;
31760;SDS011;18335;51.486;7.562;2023-01-01T11:46:05;7.32;;;1.95;;
31760;SDS011;18335;51.486;7.562;2023-01-01T11:48:34;9.75;;;2.15;;
31760;SDS011;18335;51.486;7.562;2023-01-01T11:51:08;7.65;;;2.17;;
31760;SDS011;18335;51.486;7.562;2023-01-01T11:53:37;7.93;;;1.88;;
31760;SDS011;18335;51.486;7.562;2023-01-01T11:56:08;8.95;;;2.55;;
31760;SDS011;18335;51.486;7.562;2023-01-01T11:58:42;9.98;;;1.55;;
31760;SDS011;18335;51.486;7.562;2023-01-01T12:01:18;8.98;;;1.90;;
31760;SDS011;18335;51.486;7.562;2023-01-01T12:03:52;10.05;;;1.85;;
31760;SDS011;18335;51.486;7.562;2023-01-01T12:06:25;7.55;;;2.03;;
31760;SDS011;18335;51.486;7.562;2023-01-01T12:08:58;13.15;;;2.50;;
31760;SDS011;18335;51.486;7.562;2023-01-01T12:11:30;12.48;;;2.30;;
31760;SDS011;18335;51.486;7.562;2023-01-01T12:14:04;5.00;;;1.85;;
31760;SDS011;18335;51.486;7.562;2023-01-01T12:16:40;6.35;;;1.90;;
31760;SDS011;18335;51.486;7.562;2023-01-01T12:19:16;10.52;;;1.95;;
31760;SDS011;18335;51.486;7.562;2023-01-01T12:21:49;6.18;;;2.30;;
31760;SDS011;18335;51.486;7.562;2023-01-01T12:24:20;9.63;;;2.20;;
31760;SDS011;18335;51.486;7.562;2023-01-01T12:26:54;8.85;;;1.85;;
31760;SDS011;18335;51.486;7.562;2023-01-01T12:29:34;6.97;;;1.88;;
31760;SDS011;18335;51.486;7.562;2023-01-01T12:32:12;9.40;;;2.05;;
31760;SDS011;18335;51.486;7.562;2023-01-01T12:34:49;8.32;;;1.80;;
31760;SDS011;18335;51.486;7.562;2023-01-01T12:37:29;10.27;;;2.03;;
31760;SDS011;18335;51.486;7.562;2023-01-01T12:40:24;7.63;;;1.67;;
31760;SDS011;18335;51.486;7.562;2023-01-01T12:43:00;8.23;;;2.22;;
31760;SDS011;18335;51.486;7.562;2023-01-01T12:45:45;7.05;;;1.80;;
31760;SDS011;18335;51.486;7.562;2023-01-01T12:48:41;14.02;;;3.60;;
31760;SDS011;18335;51.486;7.562;2023-01-01T12:51:28;7.27;;;2.53;;
31760;SDS011;18335;51.486;7.562;2023-01-01T12:54:10;10.82;;;2.40;;
31760;SDS011;18335;51.486;7.562;2023-01-01T12:56:59;11.00;;;1.60;;
31760;SDS011;18335;51.486;7.562;2023-01-01T12:59:35;12.40;;;2.17;;
31760;SDS011;18335;51.486;7.562;2023-01-01T13:02:10;9.00;;;1.90;;
31760;SDS011;18335;51.486;7.562;2023-01-01T13:04:39;7.55;;;2.45;;
31760;SDS011;18335;51.486;7.562;2023-01-01T13:07:09;7.63;;;1.90;;
31760;SDS011;18335;51.486;7.562;2023-01-01T13:09:40;8.40;;;1.92;;
31760;SDS011;18335;51.486;7.562;2023-01-01T13:12:13;5.80;;;1.58;;
31760;SDS011;18335;51.486;7.562;2023-01-01T13:14:44;9.00;;;2.33;;
31760;SDS011;18335;51.486;7.562;2023-01-01T13:17:17;12.07;;;2.55;;
31760;SDS011;18335;51.486;7.562;2023-01-01T13:19:45;8.70;;;1.80;;
31760;SDS011;18335;51.486;7.562;2023-01-01T13:25:18;10.20;;;1.90;;
31760;SDS011;18335;51.486;7.562;2023-01-01T13:28:01;11.15;;;2.60;;
31760;SDS011;18335;51.486;7.562;2023-01-01T13:30:48;12.70;;;2.38;;
31760;SDS011;18335;51.486;7.562;2023-01-01T13:33:17;14.40;;;3.13;;
31760;SDS011;18335;51.486;7.562;2023-01-01T13:38:51;7.88;;;1.85;;
31760;SDS011;18335;51.486;7.562;2023-01-01T13:41:28;9.15;;;1.85;;
31760;SDS011;18335;51.486;7.562;2023-01-01T13:44:18;9.00;;;2.13;;
31760;SDS011;18335;51.486;7.562;2023-01-01T13:46:54;11.18;;;1.85;;
31760;SDS011;18335;51.486;7.562;2023-01-01T13:49:40;6.25;;;2.30;;
31760;SDS011;18335;51.486;7.562;2023-01-01T13:52:25;11.23;;;1.90;;
31760;SDS011;18335;51.486;7.562;2023-01-01T13:55:14;7.97;;;1.70;;
31760;SDS011;18335;51.486;7.562;2023-01-01T14:04:19;10.27;;;2.28;;
31760;SDS011;18335;51.486;7.562;2023-01-01T14:06:56;10.65;;;2.25;;
31760;SDS011;18335;51.486;7.562;2023-01-01T14:09:28;8.52;;;1.73;;
31760;SDS011;18335;51.486;7.562;2023-01-01T14:11:55;10.80;;;2.20;;
31760;SDS011;18335;51.486;7.562;2023-01-01T14:14:24;9.25;;;2.10;;
31760;SDS011;18335;51.486;7.562;2023-01-01T14:16:53;9.40;;;1.77;;
31760;SDS011;18335;51.486;7.562;2023-01-01T14:19:22;9.30;;;2.13;;
31760;SDS011;18335;51.486;7.562;2023-01-01T14:21:51;9.07;;;2.55;;
31760;SDS011;18335;51.486;7.562;2023-01-01T14:24:20;10.45;;;2.28;;
31760;SDS011;18335;51.486;7.562;2023-01-01T14:26:49;12.63;;;2.83;;
31760;SDS011;18335;51.486;7.562;2023-01-01T14:29:20;11.40;;;2.17;;
31760;SDS011;18335;51.486;7.562;2023-01-01T14:31:52;7.32;;;1.92;;
31760;SDS011;18335;51.486;7.562;2023-01-01T14:34:22;8.20;;;2.17;;
31760;SDS011;18335;51.486;7.562;2023-01-01T14:36:50;9.93;;;2.30;;
31760;SDS011;18335;51.486;7.562;2023-01-01T14:39:22;12.98;;;2.47;;
31760;SDS011;18335;51.486;7.562;2023-01-01T14:41:53;9.50;;;2.95;;
31760;SDS011;18335;51.486;7.562;2023-01-01T14:44:24;13.23;;;3.92;;
31760;SDS011;18335;51.486;7.562;2023-01-01T14:46:56;8.95;;;2.50;;
31760;SDS011;18335;51.486;7.562;2023-01-01T14:49:25;9.80;;;2.40;;
31760;SDS011;18335;51.486;7.562;2023-01-01T14:51:55;9.95;;;2.70;;
31760;SDS011;18335;51.486;7.562;2023-01-01T14:54:27;11.25;;;3.20;;
31760;SDS011;18335;51.486;7.562;2023-01-01T14:57:01;8.27;;;2.22;;
31760;SDS011;18335;51.486;7.562;2023-01-01T14:59:35;12.70;;;2.30;;
31760;SDS011;18335;51.486;7.562;2023-01-01T15:02:19;9.82;;;2.75;;
31760;SDS011;18335;51.486;7.562;2023-01-01T15:04:57;9.65;;;2.75;;
31760;SDS011;18335;51.486;7.562;2023-01-01T15:07:41;7.85;;;2.72;;
31760;SDS011;18335;51.486;7.562;2023-01-01T15:10:13;8.90;;;2.40;;
31760;SDS011;18335;51.486;7.562;2023-01-01T15:12:44;7.15;;;2.15;;
31760;SDS011;18335;51.486;7.562;2023-01-01T15:21:10;9.02;;;2.55;;
31760;SDS011;18335;51.486;7.562;2023-01-01T15:23:50;7.00;;;2.03;;
31760;SDS011;18335;51.486;7.562;2023-01-01T15:26:25;10.80;;;2.30;;
31760;SDS011;18335;51.486;7.562;2023-01-01T15:28:56;8.32;;;2.40;;